Time;durP1;ratioP1;P1;durP2;ratioP2;P2;SDS_P1;SDS_P2;PMS_P1;PMS_P2;Temp;Humidity;BMP_temperature;BMP_pressure;BME280_temperature;BME280_humidity;BME280_pressure;Samples;Min_cycle;Max_cycle;Signal;HPM_P1;HPM_P2
2022/09/01 00:01:55;;;;;;;;;;;20.30;56.60;;;;;;5149664;27;20342;-45
2022/09/01 00:04:25;;;;;;;;;;;20.20;55.10;;;;;;5143898;27;19930;-46
2022/09/01 00:06:53;;;;;;;;;;;19.90;53.90;;;;;;5149522;27;19927;-47
2022/09/01 00:09:19;;;;;;;;;;;19.90;56.20;;;;;;5144533;27;19934;-47
2022/09/01 00:11:46;;;;;;;;;;;20.50;62.50;;;;;;5144165;27;19938;-45
2022/09/01 00:14:12;;;;;;;;;;;21.10;63.60;;;;;;5146488;27;19929;-55
2022/09/01 00:16:38;;;;;;;;;;;21.50;61.20;;;;;;5141893;27;20374;-46
2022/09/01 00:19:04;;;;;;;;;;;20.80;58.60;;;;;;5143667;27;20067;-45
2022/09/01 00:21:35;;;;;;;;;;;20.20;56.50;;;;;;5130698;27;20370;-49
2022/09/01 00:24:00;;;;;;;;;;;19.90;55.10;;;;;;5143852;27;20031;-46
2022/09/01 00:26:26;;;;;;;;;;;19.90;53.90;;;;;;5144278;27;19923;-54
2022/09/01 00:28:52;;;;;;;;;;;19.80;56.70;;;;;;5149293;27;19983;-48
2022/09/01 00:31:18;;;;;;;;;;;20.50;62.20;;;;;;5143530;27;20249;-50
2022/09/01 00:33:44;;;;;;;;;;;21.10;63.40;;;;;;5144608;27;19934;-47
2022/09/01 00:36:10;;;;;;;;;;;21.50;61.40;;;;;;5142883;27;19933;-48
2022/09/01 00:38:36;;;;;;;;;;;20.60;58.50;;;;;;5142520;27;20298;-44
2022/09/01 00:41:02;;;;;;;;;;;20.30;56.30;;;;;;5129030;27;19934;-45
2022/09/01 00:43:40;;;;;;;;;;;19.90;55.40;;;;;;5143369;27;19923;-45
2022/09/01 00:46:07;;;;;;;;;;;19.90;53.80;;;;;;5143379;27;20678;-48
2022/09/01 00:48:33;;;;;;;;;;;19.90;56.60;;;;;;5148846;27;19927;-47
2022/09/01 00:50:59;;;;;;;;;;;20.40;62.70;;;;;;5140588;27;20334;-46
2022/09/01 00:53:25;;;;;;;;;;;21.00;63.70;;;;;;5144554;27;19931;-55
2022/09/01 00:55:51;;;;;;;;;;;21.60;61.40;;;;;;5145534;27;19923;-49
2022/09/01 00:58:16;;;;;;;;;;;20.70;59.10;;;;;;5142991;27;20313;-45
2022/09/01 01:00:42;;;;;;;;;;;20.20;57.00;;;;;;5148531;27;19930;-48
2022/09/01 01:03:11;;;;;;;;;;;20.10;54.70;;;;;;5143164;27;19975;-45
2022/09/01 01:05:39;;;;;;;;;;;19.80;54.10;;;;;;5124921;27;19976;-47
2022/09/01 01:08:06;;;;;;;;;;;19.90;60.20;;;;;;5130068;27;19923;-50
2022/09/01 01:10:34;;;;;;;;;;;20.70;63.40;;;;;;5138936;27;20392;-49
2022/09/01 01:13:01;;;;;;;;;;;21.30;63.30;;;;;;5142325;27;20122;-50
2022/09/01 01:15:27;;;;;;;;;;;21.40;60.40;;;;;;5129162;27;19952;-46
2022/09/01 01:17:53;;;;;;;;;;;20.50;58.00;;;;;;5142733;27;19963;-49
2022/09/01 01:23:22;;;;;;;;;;;19.90;55.10;;;;;;5132655;27;20455;-45
2022/09/01 01:25:49;;;;;;;;;;;19.80;55.10;;;;;;5142854;27;20382;-47
2022/09/01 01:28:19;;;;;;;;;;;20.40;62.50;;;;;;5142245;27;19929;-51
2022/09/01 01:30:49;;;;;;;;;;;21.00;63.80;;;;;;5145415;27;19927;-50
2022/09/01 01:33:16;;;;;;;;;;;21.50;61.60;;;;;;5142502;27;20055;-49
2022/09/01 01:35:42;;;;;;;;;;;20.80;58.70;;;;;;5148107;27;19923;-47
2022/09/01 01:38:08;;;;;;;;;;;20.30;56.80;;;;;;5142539;27;19971;-46
2022/09/01 01:40:34;;;;;;;;;;;20.00;55.30;;;;;;5142595;27;19927;-47
2022/09/01 01:43:00;;;;;;;;;;;19.90;53.90;;;;;;5147969;27;19924;-46
2022/09/01 01:45:26;;;;;;;;;;;20.00;58.60;;;;;;5122339;27;19923;-45
2022/09/01 01:47:53;;;;;;;;;;;20.60;63.20;;;;;;5139127;27;20054;-46
2022/09/01 01:50:33;;;;;;;;;;;21.30;63.30;;;;;;5147484;27;19946;-46
2022/09/01 01:53:01;;;;;;;;;;;21.50;62.00;;;;;;5141212;27;20361;-56
2022/09/01 01:55:27;;;;;;;;;;;21.30;63.40;;;;;;5143074;27;19937;-56
2022/09/01 01:57:55;;;;;;;;;;;21.30;63.90;;;;;;5147487;27;19927;-54
2022/09/01 02:00:22;;;;;;;;;;;21.30;64.00;;;;;;5142323;27;19923;-56
2022/09/01 02:02:51;;;;;;;;;;;21.30;64.00;;;;;;5147598;27;19923;-54
2022/09/01 02:05:20;;;;;;;;;;;21.30;63.80;;;;;;5137616;27;19931;-53
2022/09/01 02:07:47;;;;;;;;;;;21.30;63.70;;;;;;5141261;27;19972;-57
2022/09/01 02:10:13;;;;;;;;;;;21.30;63.30;;;;;;5147577;27;19971;-55
2022/09/01 02:12:40;;;;;;;;;;;21.40;63.00;;;;;;5142390;27;19923;-54
2022/09/01 02:15:06;;;;;;;;;;;21.50;63.00;;;;;;5142218;27;20179;-54
2022/09/01 02:17:32;;;;;;;;;;;21.80;62.10;;;;;;5147623;27;20013;-56
2022/09/01 02:19:58;;;;;;;;;;;21.80;61.90;;;;;;5141824;27;19923;-55
2022/09/01 02:22:24;;;;;;;;;;;21.80;61.40;;;;;;5143773;27;19935;-53
2022/09/01 02:24:51;;;;;;;;;;;21.80;61.30;;;;;;5140666;27;19927;-50
2022/09/01 02:27:20;;;;;;;;;;;21.80;60.90;;;;;;5141485;27;19927;-53
2022/09/01 02:29:47;;;;;;;;;;;21.80;61.20;;;;;;5147328;27;19923;-56
2022/09/01 02:32:20;;;;;;;;;;;21.70;61.20;;;;;;5142027;27;20394;-55
2022/09/01 02:34:52;;;;;;;;;;;21.70;61.10;;;;;;5141410;27;19923;-54
2022/09/01 02:37:24;;;;;;;;;;;21.70;60.90;;;;;;5147140;27;19923;-53
2022/09/01 02:39:52;;;;;;;;;;;21.80;60.80;;;;;;5141614;27;19937;-57
2022/09/01 02:42:26;;;;;;;;;;;21.80;60.90;;;;;;5136929;27;19923;-52
2022/09/01 02:44:53;;;;;;;;;;;21.80;60.80;;;;;;5146343;27;19928;-54
2022/09/01 02:47:18;;;;;;;;;;;22.00;60.50;;;;;;5141320;27;19927;-52
2022/09/01 02:49:44;;;;;;;;;;;22.00;60.60;;;;;;5141568;27;20048;-53
2022/09/01 02:52:10;;;;;;;;;;;21.90;60.70;;;;;;5147033;27;20054;-52
2022/09/01 02:54:36;;;;;;;;;;;21.90;60.60;;;;;;5141556;27;19931;-55
2022/09/01 02:57:02;;;;;;;;;;;21.30;60.10;;;;;;5146848;27;19923;-56
2022/09/01 02:59:29;;;;;;;;;;;21.30;59.20;;;;;;5138296;27;20335;-57
2022/09/01 03:01:56;;;;;;;;;;;21.40;59.80;;;;;;5119823;27;20489;-55
2022/09/01 03:04:22;;;;;;;;;;;21.60;59.90;;;;;;5146519;27;19933;-58
2022/09/01 03:06:49;;;;;;;;;;;21.70;59.70;;;;;;5141183;27;20438;-57
2022/09/01 03:09:15;;;;;;;;;;;21.70;59.70;;;;;;5141304;27;20181;-58
2022/09/01 03:11:42;;;;;;;;;;;21.80;59.50;;;;;;5146573;27;19934;-59
2022/09/01 03:14:08;;;;;;;;;;;21.80;58.90;;;;;;5140880;27;19942;-57
2022/09/01 03:16:34;;;;;;;;;;;21.90;58.50;;;;;;5146305;27;20398;-56
2022/09/01 03:19:02;;;;;;;;;;;21.90;58.00;;;;;;5118500;27;19923;-59
2022/09/01 03:21:28;;;;;;;;;;;21.80;58.10;;;;;;5140207;27;19929;-59
2022/09/01 03:23:54;;;;;;;;;;;21.80;58.10;;;;;;5146073;27;19931;-59
2022/09/01 03:26:21;;;;;;;;;;;21.80;58.10;;;;;;5140847;27;19923;-59
2022/09/01 03:28:47;;;;;;;;;;;21.80;58.20;;;;;;5122753;27;19944;-58
2022/09/01 03:31:13;;;;;;;;;;;21.80;58.30;;;;;;5146467;27;20396;-59
2022/09/01 03:33:39;;;;;;;;;;;21.80;58.20;;;;;;5140974;27;19923;-58
2022/09/01 03:36:05;;;;;;;;;;;21.80;58.00;;;;;;5139169;27;20430;-58
2022/09/01 03:38:31;;;;;;;;;;;21.90;57.90;;;;;;5143283;27;19923;-59
2022/09/01 03:41:00;;;;;;;;;;;21.90;57.80;;;;;;5140612;27;19931;-58
2022/09/01 03:43:26;;;;;;;;;;;21.90;57.60;;;;;;5146302;27;19968;-57
2022/09/01 03:45:54;;;;;;;;;;;21.90;57.60;;;;;;5141021;27;19930;-59
2022/09/01 03:48:20;;;;;;;;;;;21.80;57.70;;;;;;5140988;27;19929;-60
2022/09/01 03:50:46;;;;;;;;;;;21.80;57.70;;;;;;5146413;27;19926;-59
2022/09/01 03:53:15;;;;;;;;;;;21.80;57.70;;;;;;5140699;27;19937;-60
2022/09/01 03:55:43;;;;;;;;;;;21.80;57.70;;;;;;5136306;27;20120;-55
2022/09/01 03:58:11;;;;;;;;;;;21.80;57.60;;;;;;5145312;27;19927;-59
2022/09/01 04:00:38;;;;;;;;;;;21.90;57.50;;;;;;5122162;27;20070;-60
2022/09/01 04:03:04;;;;;;;;;;;21.90;57.30;;;;;;5144621;27;19923;-58
2022/09/01 04:05:32;;;;;;;;;;;21.90;57.20;;;;;;5142271;27;19923;-60
2022/09/01 04:08:01;;;;;;;;;;;21.90;57.10;;;;;;5140378;27;19931;-59
2022/09/01 04:10:27;;;;;;;;;;;21.90;57.10;;;;;;5127816;27;19923;-59
2022/09/01 04:12:55;;;;;;;;;;;21.80;57.30;;;;;;5138390;27;19930;-58
2022/09/01 04:15:21;;;;;;;;;;;21.80;57.20;;;;;;5138048;27;20029;-58
2022/09/01 04:20:38;;;;;;;;;;;21.80;57.20;;;;;;5127891;27;19930;-58
2022/09/01 04:23:10;;;;;;;;;;;21.90;57.00;;;;;;5143601;27;19923;-59
2022/09/01 04:25:36;;;;;;;;;;;21.90;56.90;;;;;;5149393;27;19923;-58
2022/09/01 04:28:11;;;;;;;;;;;21.90;57.00;;;;;;5143504;27;19943;-57
2022/09/01 04:30:39;;;;;;;;;;;21.90;56.80;;;;;;5142674;27;20432;-57
2022/09/01 04:33:05;;;;;;;;;;;21.80;57.10;;;;;;5145354;27;19927;-60
2022/09/01 04:35:36;;;;;;;;;;;21.80;57.00;;;;;;5143254;27;19931;-59
2022/09/01 04:38:01;;;;;;;;;;;21.80;57.10;;;;;;5144338;27;20398;-59
2022/09/01 04:40:27;;;;;;;;;;;21.80;57.10;;;;;;5148434;27;19976;-56
2022/09/01 04:42:53;;;;;;;;;;;21.90;56.80;;;;;;5143503;27;19923;-60
2022/09/01 04:45:21;;;;;;;;;;;21.90;56.80;;;;;;5148832;27;20080;-59
2022/09/01 04:47:47;;;;;;;;;;;21.90;56.70;;;;;;5143438;27;20155;-59
2022/09/01 04:50:16;;;;;;;;;;;21.80;56.90;;;;;;5139867;27;20284;-57
2022/09/01 04:52:42;;;;;;;;;;;21.80;57.00;;;;;;5147031;27;19951;-60
2022/09/01 04:55:16;;;;;;;;;;;21.60;56.40;;;;;;5143243;27;19945;-59
2022/09/01 04:57:46;;;;;;;;;;;21.30;54.40;;;;;;5143418;27;20184;-58
2022/09/01 05:00:21;;;;;;;;;;;21.30;53.90;;;;;;5130742;27;19930;-60
2022/09/01 05:02:48;;;;;;;;;;;21.30;54.10;;;;;;5143287;27;20374;-58
2022/09/01 05:05:14;;;;;;;;;;;21.40;56.10;;;;;;5143303;27;19937;-59
2022/09/01 05:07:40;;;;;;;;;;;21.60;56.60;;;;;;5146532;27;19930;-56
2022/09/01 05:10:05;;;;;;;;;;;21.50;56.80;;;;;;5140507;27;19930;-59
2022/09/01 05:12:31;;;;;;;;;;;21.60;56.80;;;;;;5147853;27;20414;-60
2022/09/01 05:14:57;;;;;;;;;;;21.60;56.60;;;;;;5142878;27;19923;-57
2022/09/01 05:17:24;;;;;;;;;;;21.60;56.70;;;;;;5143118;27;19934;-58
2022/09/01 05:19:50;;;;;;;;;;;21.70;56.50;;;;;;5148326;27;20104;-58
2022/09/01 05:22:18;;;;;;;;;;;21.80;56.60;;;;;;5143031;27;19946;-59
2022/09/01 05:24:44;;;;;;;;;;;21.80;56.50;;;;;;5142851;27;20307;-60
2022/09/01 05:27:13;;;;;;;;;;;21.80;56.40;;;;;;5144237;27;20264;-59
2022/09/01 05:29:40;;;;;;;;;;;21.80;56.50;;;;;;5141975;27;19975;-61
2022/09/01 05:32:07;;;;;;;;;;;21.70;56.50;;;;;;5146657;27;19931;-56
2022/09/01 05:34:36;;;;;;;;;;;21.80;56.40;;;;;;5145228;27;19930;-59
2022/09/01 05:37:02;;;;;;;;;;;21.80;56.30;;;;;;5142640;27;19923;-57
2022/09/01 05:39:28;;;;;;;;;;;21.80;56.30;;;;;;5147965;27;19946;-57
2022/09/01 05:41:54;;;;;;;;;;;21.80;56.30;;;;;;5142930;27;20370;-59
2022/09/01 05:44:21;;;;;;;;;;;21.80;56.20;;;;;;5141428;27;19970;-60
2022/09/01 05:46:48;;;;;;;;;;;21.90;56.10;;;;;;5126718;27;20018;-57
2022/09/01 05:49:17;;;;;;;;;;;21.90;56.00;;;;;;5142608;27;19929;-60
2022/09/01 05:51:48;;;;;;;;;;;21.80;55.90;;;;;;5124890;27;19923;-59
2022/09/01 05:54:17;;;;;;;;;;;21.80;56.10;;;;;;5148076;27;20028;-59
2022/09/01 05:56:43;;;;;;;;;;;21.80;56.20;;;;;;5142549;27;19981;-58
2022/09/01 05:59:10;;;;;;;;;;;21.80;56.00;;;;;;5147278;27;20025;-55
2022/09/01 06:01:40;;;;;;;;;;;21.80;55.90;;;;;;5143517;27;19923;-58
2022/09/01 06:04:06;;;;;;;;;;;21.90;55.90;;;;;;5138228;27;19923;-57
2022/09/01 06:06:36;;;;;;;;;;;21.90;55.70;;;;;;5146652;27;20017;-58
2022/09/01 06:09:03;;;;;;;;;;;21.90;55.60;;;;;;5142472;27;19927;-60
2022/09/01 06:11:31;;;;;;;;;;;21.90;55.60;;;;;;5142435;27;19927;-58
2022/09/01 06:13:58;;;;;;;;;;;21.90;55.50;;;;;;5147443;27;19923;-58
2022/09/01 06:16:23;;;;;;;;;;;21.90;55.70;;;;;;5120822;27;19923;-59
2022/09/01 06:18:52;;;;;;;;;;;21.90;55.70;;;;;;5142220;27;19948;-58
2022/09/01 06:21:18;;;;;;;;;;;21.90;55.70;;;;;;5144891;27;20317;-57
2022/09/01 06:23:43;;;;;;;;;;;21.80;55.90;;;;;;5139342;27;19966;-58
2022/09/01 06:26:19;;;;;;;;;;;21.90;55.70;;;;;;5146861;27;19934;-58
2022/09/01 06:28:45;;;;;;;;;;;22.00;55.60;;;;;;5144373;27;19923;-59
2022/09/01 06:31:11;;;;;;;;;;;22.00;55.50;;;;;;5141791;27;19966;-59
2022/09/01 06:33:37;;;;;;;;;;;22.00;55.50;;;;;;5147377;27;19976;-57
2022/09/01 06:36:04;;;;;;;;;;;21.90;55.60;;;;;;5141067;27;19927;-59
2022/09/01 06:38:30;;;;;;;;;;;21.90;55.70;;;;;;5141910;27;19923;-57
2022/09/01 06:41:03;;;;;;;;;;;21.90;55.60;;;;;;5124098;27;20386;-56
2022/09/01 06:43:29;;;;;;;;;;;22.00;55.60;;;;;;5141112;27;20375;-59
2022/09/01 06:45:55;;;;;;;;;;;22.00;55.60;;;;;;5141815;27;20482;-57
2022/09/01 06:48:22;;;;;;;;;;;22.00;55.50;;;;;;5126904;27;19931;-59
2022/09/01 06:50:48;;;;;;;;;;;22.10;55.40;;;;;;5141965;27;19923;-59
2022/09/01 06:53:15;;;;;;;;;;;22.10;55.30;;;;;;5147145;27;19932;-59
2022/09/01 06:55:42;;;;;;;;;;;22.00;55.60;;;;;;5141660;27;19923;-59
2022/09/01 06:58:08;;;;;;;;;;;22.00;55.70;;;;;;5139325;27;19923;-58
2022/09/01 07:00:40;;;;;;;;;;;21.90;55.80;;;;;;5144740;27;19927;-58
2022/09/01 07:03:10;;;;;;;;;;;21.80;54.40;;;;;;5141967;27;19922;-58
2022/09/01 07:05:39;;;;;;;;;;;21.50;53.30;;;;;;5141876;27;19933;-59
2022/09/01 07:08:09;;;;;;;;;;;21.50;52.50;;;;;;5146820;27;19927;-59
2022/09/01 07:10:43;;;;;;;;;;;21.70;54.20;;;;;;5141764;27;19947;-59
2022/09/01 07:13:10;;;;;;;;;;;21.80;55.10;;;;;;5142363;27;19999;-57
2022/09/01 07:15:37;;;;;;;;;;;21.80;55.50;;;;;;5147112;27;19951;-56
2022/09/01 07:18:03;;;;;;;;;;;21.80;55.60;;;;;;5141096;27;20104;-56
2022/09/01 07:20:35;;;;;;;;;;;21.80;55.50;;;;;;5145955;27;19945;-52
2022/09/01 07:23:01;;;;;;;;;;;21.90;55.60;;;;;;5146523;27;19926;-56
2022/09/01 07:25:26;;;;;;;;;;;21.90;55.50;;;;;;5124513;27;19931;-55
2022/09/01 07:27:53;;;;;;;;;;;21.90;55.70;;;;;;5147479;27;19934;-52
2022/09/01 07:30:20;;;;;;;;;;;22.10;55.60;;;;;;5144460;27;20087;-53
2022/09/01 07:32:46;;;;;;;;;;;22.00;55.60;;;;;;5144173;27;20374;-53
2022/09/01 07:35:13;;;;;;;;;;;22.10;55.30;;;;;;5145784;27;19967;-54
2022/09/01 07:37:39;;;;;;;;;;;22.00;55.50;;;;;;5125397;27;19923;-50
2022/09/01 07:40:05;;;;;;;;;;;22.00;55.70;;;;;;5144682;27;19983;-54
2022/09/01 07:42:31;;;;;;;;;;;22.10;55.40;;;;;;5127844;27;19968;-51
2022/09/01 07:44:57;;;;;;;;;;;22.10;55.20;;;;;;5142206;27;20324;-50
2022/09/01 07:47:23;;;;;;;;;;;22.10;55.30;;;;;;5148980;27;19930;-50
2022/09/01 07:49:50;;;;;;;;;;;22.20;55.20;;;;;;5130560;27;19962;-52
2022/09/01 07:52:19;;;;;;;;;;;22.20;55.10;;;;;;5130183;27;20017;-51
2022/09/01 07:54:45;;;;;;;;;;;22.20;55.30;;;;;;5113884;27;19923;-54
2022/09/01 07:57:11;;;;;;;;;;;22.20;55.30;;;;;;5128387;27;19966;-52
2022/09/01 07:59:37;;;;;;;;;;;22.20;55.50;;;;;;5145047;27;20017;-47
2022/09/01 08:02:04;;;;;;;;;;;22.00;56.30;;;;;;5149994;27;20055;-52
2022/09/01 08:04:30;;;;;;;;;;;22.10;56.10;;;;;;5144752;27;19979;-51
2022/09/01 08:06:56;;;;;;;;;;;22.00;57.00;;;;;;5148512;27;19927;-56
2022/09/01 08:09:22;;;;;;;;;;;22.20;56.10;;;;;;5146707;27;19930;-46
2022/09/01 08:11:48;;;;;;;;;;;22.00;56.80;;;;;;5141365;27;19923;-45
2022/09/01 08:14:14;;;;;;;;;;;22.20;55.80;;;;;;5147155;27;20269;-45
2022/09/01 08:16:40;;;;;;;;;;;22.10;55.40;;;;;;5143722;27;20450;-46
2022/09/01 08:19:05;;;;;;;;;;;22.10;55.30;;;;;;5143763;27;19923;-45
2022/09/01 08:21:31;;;;;;;;;;;22.30;54.70;;;;;;5149540;27;19923;-48
2022/09/01 08:23:57;;;;;;;;;;;22.00;55.50;;;;;;5144130;27;19927;-50
2022/09/01 08:26:24;;;;;;;;;;;20.40;56.90;;;;;;5145645;27;19952;-57
2022/09/01 08:28:50;;;;;;;;;;;19.70;58.60;;;;;;5130082;27;19931;-47
2022/09/01 08:31:16;;;;;;;;;;;20.30;61.50;;;;;;5141045;27;20378;-51
2022/09/01 08:33:42;;;;;;;;;;;21.00;63.60;;;;;;5148978;27;20021;-46
2022/09/01 08:36:08;;;;;;;;;;;21.50;61.70;;;;;;5125748;27;19927;-47
2022/09/01 08:38:34;;;;;;;;;;;21.80;59.70;;;;;;5126027;27;19927;-48
2022/09/01 08:41:02;;;;;;;;;;;22.00;58.10;;;;;;5149408;27;20885;-46
2022/09/01 08:43:37;;;;;;;;;;;22.00;57.10;;;;;;5145046;27;19926;-47
2022/09/01 08:46:13;;;;;;;;;;;22.10;56.30;;;;;;5144724;27;19981;-46
2022/09/01 08:48:40;;;;;;;;;;;22.20;55.80;;;;;;5146396;27;19945;-48
2022/09/01 08:51:11;;;;;;;;;;;22.20;55.50;;;;;;5142851;27;19923;-47
2022/09/01 08:53:40;;;;;;;;;;;22.20;55.10;;;;;;5143136;27;19923;-49
2022/09/01 08:56:07;;;;;;;;;;;21.10;56.70;;;;;;5129192;27;20026;-47
2022/09/01 08:58:32;;;;;;;;;;;20.00;58.00;;;;;;5125005;27;19927;-48
2022/09/01 09:00:59;;;;;;;;;;;19.80;58.00;;;;;;5149475;27;20379;-47
2022/09/01 09:03:40;;;;;;;;;;;20.40;63.30;;;;;;5145280;27;20482;-48
2022/09/01 09:06:14;;;;;;;;;;;21.00;63.80;;;;;;5143766;27;20022;-48
2022/09/01 09:08:50;;;;;;;;;;;21.30;60.30;;;;;;5126261;27;20013;-47
2022/09/01 09:11:20;;;;;;;;;;;21.10;55.70;;;;;;5144232;27;19975;-46
2022/09/01 09:13:51;;;;;;;;;;;21.20;54.50;;;;;;5143390;27;19923;-47
2022/09/01 09:16:21;;;;;;;;;;;21.90;57.50;;;;;;5111530;27;19924;-48
2022/09/01 09:18:48;;;;;;;;;;;22.10;60.20;;;;;;5125012;27;20022;-47
2022/09/01 09:21:16;;;;;;;;;;;21.10;60.00;;;;;;5125983;27;19929;-47
2022/09/01 09:23:44;;;;;;;;;;;20.70;59.20;;;;;;5148638;27;19930;-48
2022/09/01 09:26:10;;;;;;;;;;;20.50;58.80;;;;;;5141323;27;20052;-49
2022/09/01 09:28:37;;;;;;;;;;;20.30;58.40;;;;;;5143446;27;20212;-46
2022/09/01 09:31:22;;;;;;;;;;;20.40;57.60;;;;;;5148449;27;19923;-49
2022/09/01 09:33:48;;;;;;;;;;;20.30;57.40;;;;;;5144707;27;19930;-45
2022/09/01 09:36:18;;;;;;;;;;;20.20;57.30;;;;;;5144781;27;20067;-50
2022/09/01 09:38:44;;;;;;;;;;;20.20;57.10;;;;;;5148558;27;19926;-48
2022/09/01 09:41:17;;;;;;;;;;;20.10;57.40;;;;;;5126085;27;20075;-48
2022/09/01 09:44:03;;;;;;;;;;;20.30;57.00;;;;;;5144910;27;19927;-49
2022/09/01 09:46:35;;;;;;;;;;;20.20;57.20;;;;;;5146087;27;20302;-46
2022/09/01 09:49:06;;;;;;;;;;;20.20;57.50;;;;;;5144285;27;19931;-45
2022/09/01 09:51:32;;;;;;;;;;;20.30;56.80;;;;;;5144895;27;20495;-52
2022/09/01 09:54:14;;;;;;;;;;;20.30;56.90;;;;;;5128914;27;19927;-45
2022/09/01 09:56:43;;;;;;;;;;;20.30;56.90;;;;;;5143934;27;19975;-47
2022/09/01 09:59:22;;;;;;;;;;;20.20;57.20;;;;;;5147898;27;19975;-52
2022/09/01 10:01:50;;;;;;;;;;;20.20;57.00;;;;;;5110391;27;19927;-48
2022/09/01 10:04:30;;;;;;;;;;;20.20;56.70;;;;;;5141823;27;20328;-47
2022/09/01 10:06:55;;;;;;;;;;;20.20;57.20;;;;;;5147124;27;19923;-54
2022/09/01 10:09:21;;;;;;;;;;;20.00;57.00;;;;;;5145263;27;19931;-48
2022/09/01 10:11:48;;;;;;;;;;;19.90;57.80;;;;;;5144398;27;20011;-49
2022/09/01 10:14:18;;;;;;;;;;;19.90;57.60;;;;;;5148148;27;19981;-46
2022/09/01 10:16:44;;;;;;;;;;;20.10;57.40;;;;;;5125926;27;19936;-49
2022/09/01 10:19:13;;;;;;;;;;;20.00;57.50;;;;;;5106203;27;19924;-47
2022/09/01 10:21:39;;;;;;;;;;;20.00;57.10;;;;;;5126185;27;19936;-46
2022/09/01 10:24:16;;;;;;;;;;;20.00;57.00;;;;;;5124972;27;19923;-47
2022/09/01 10:26:43;;;;;;;;;;;20.00;57.00;;;;;;5125646;27;20136;-48
2022/09/01 10:29:13;;;;;;;;;;;20.10;57.10;;;;;;5112514;27;19923;-45
2022/09/01 10:31:39;;;;;;;;;;;20.00;57.50;;;;;;5126745;27;19929;-46
2022/09/01 10:34:05;;;;;;;;;;;20.00;57.20;;;;;;5127842;27;20378;-54
2022/09/01 10:36:31;;;;;;;;;;;20.00;57.40;;;;;;5146951;27;19927;-45
2022/09/01 10:38:58;;;;;;;;;;;20.10;57.30;;;;;;5123314;27;21180;-46
2022/09/01 10:41:42;;;;;;;;;;;20.10;56.90;;;;;;5146134;27;20282;-46
2022/09/01 10:44:09;;;;;;;;;;;20.00;56.90;;;;;;5144260;27;19935;-47
2022/09/01 10:46:35;;;;;;;;;;;20.00;56.70;;;;;;5144068;27;19929;-50
2022/09/01 10:49:01;;;;;;;;;;;19.90;57.00;;;;;;5147825;27;19923;-47
2022/09/01 10:51:26;;;;;;;;;;;19.80;57.20;;;;;;5124629;27;19923;-48
2022/09/01 10:53:53;;;;;;;;;;;20.50;61.00;;;;;;5143253;27;20021;-48
2022/09/01 10:56:18;;;;;;;;;;;21.20;63.80;;;;;;5146414;27;19922;-57
2022/09/01 10:58:49;;;;;;;;;;;21.60;63.70;;;;;;5137072;27;19956;-50
2022/09/01 11:01:15;;;;;;;;;;;20.90;59.90;;;;;;5123149;27;19923;-54
2022/09/01 11:03:54;;;;;;;;;;;20.40;58.60;;;;;;5146377;27;20014;-48
2022/09/01 11:06:38;;;;;;;;;;;20.30;57.50;;;;;;5121674;27;20396;-50
2022/09/01 11:09:04;;;;;;;;;;;20.30;56.70;;;;;;5141260;27;19923;-50
2022/09/01 11:11:33;;;;;;;;;;;20.20;56.50;;;;;;5146856;27;19930;-47
2022/09/01 11:13:59;;;;;;;;;;;20.10;56.40;;;;;;5122947;27;19923;-49
2022/09/01 11:16:26;;;;;;;;;;;20.00;56.20;;;;;;5123788;27;19942;-47
2022/09/01 11:18:52;;;;;;;;;;;20.10;55.80;;;;;;5140327;27;20017;-51
2022/09/01 11:21:24;;;;;;;;;;;20.00;55.90;;;;;;5141417;27;19954;-47
2022/09/01 11:23:50;;;;;;;;;;;19.90;56.00;;;;;;5150343;27;20022;-49
2022/09/01 11:26:31;;;;;;;;;;;20.00;56.00;;;;;;5144994;27;19923;-47
2022/09/01 11:28:57;;;;;;;;;;;20.00;56.30;;;;;;5144996;27;19929;-46
2022/09/01 11:31:30;;;;;;;;;;;19.90;56.40;;;;;;5130910;27;19972;-47
2022/09/01 11:34:13;;;;;;;;;;;19.90;56.60;;;;;;5141853;27;20021;-47
2022/09/01 11:36:43;;;;;;;;;;;20.00;56.50;;;;;;5142765;27;19927;-47
2022/09/01 11:39:18;;;;;;;;;;;20.00;56.90;;;;;;5149776;27;19975;-47
2022/09/01 11:42:03;;;;;;;;;;;20.10;56.50;;;;;;5145044;27;19967;-47
2022/09/01 11:44:48;;;;;;;;;;;20.00;56.80;;;;;;5144852;27;20388;-46
2022/09/01 11:47:25;;;;;;;;;;;19.90;57.00;;;;;;5150136;27;20561;-46
2022/09/01 11:49:55;;;;;;;;;;;20.00;56.80;;;;;;5144867;27;19950;-48
2022/09/01 11:52:22;;;;;;;;;;;20.00;56.60;;;;;;5123266;27;20017;-50
2022/09/01 11:54:48;;;;;;;;;;;19.90;56.90;;;;;;5147631;27;19923;-47
2022/09/01 11:57:22;;;;;;;;;;;20.00;56.40;;;;;;5144158;27;19930;-47
2022/09/01 11:59:48;;;;;;;;;;;19.80;57.10;;;;;;5144473;27;19929;-49
2022/09/01 12:02:18;;;;;;;;;;;20.00;56.90;;;;;;5149846;27;19923;-47
2022/09/01 12:04:44;;;;;;;;;;;19.90;57.10;;;;;;5144492;27;19931;-48
2022/09/01 12:07:10;;;;;;;;;;;20.00;56.70;;;;;;5144896;27;19991;-48
2022/09/01 12:09:39;;;;;;;;;;;20.00;56.70;;;;;;5114147;27;20025;-48
2022/09/01 12:12:05;;;;;;;;;;;19.90;57.00;;;;;;5140093;27;19986;-47
2022/09/01 12:14:31;;;;;;;;;;;19.90;56.90;;;;;;5149169;27;19927;-45
2022/09/01 12:16:58;;;;;;;;;;;20.00;56.70;;;;;;5144311;27;20430;-45
2022/09/01 12:19:25;;;;;;;;;;;19.90;56.50;;;;;;5125823;27;20408;-48
2022/09/01 12:21:55;;;;;;;;;;;19.90;56.60;;;;;;5149658;27;19934;-47
2022/09/01 12:24:22;;;;;;;;;;;19.90;57.00;;;;;;5144421;27;19926;-49
2022/09/01 12:26:48;;;;;;;;;;;19.90;56.90;;;;;;5144145;27;19923;-45
2022/09/01 12:29:15;;;;;;;;;;;20.00;56.30;;;;;;5127716;27;19929;-47
2022/09/01 12:31:44;;;;;;;;;;;20.00;56.60;;;;;;5141801;27;19923;-47
2022/09/01 12:34:28;;;;;;;;;;;20.00;56.90;;;;;;5124429;27;19933;-54
2022/09/01 12:37:13;;;;;;;;;;;20.10;56.80;;;;;;5149565;27;19923;-46
2022/09/01 12:39:44;;;;;;;;;;;20.00;56.80;;;;;;5143615;27;19923;-45
2022/09/01 12:42:10;;;;;;;;;;;20.00;56.70;;;;;;5143636;27;20376;-45
2022/09/01 12:44:35;;;;;;;;;;;20.10;55.90;;;;;;5149233;27;20462;-46
2022/09/01 12:47:05;;;;;;;;;;;20.00;56.20;;;;;;5141422;27;19923;-48
2022/09/01 12:49:35;;;;;;;;;;;19.90;56.40;;;;;;5144054;27;19945;-53
2022/09/01 12:52:05;;;;;;;;;;;20.10;56.10;;;;;;5147424;27;19971;-46
2022/09/01 12:54:30;;;;;;;;;;;19.90;56.80;;;;;;5143391;27;19970;-46
2022/09/01 12:56:56;;;;;;;;;;;20.00;56.20;;;;;;5148902;27;19934;-46
2022/09/01 12:59:23;;;;;;;;;;;20.00;56.30;;;;;;5143444;27;19923;-45
2022/09/01 13:01:48;;;;;;;;;;;19.90;56.40;;;;;;5143478;27;19951;-47
2022/09/01 13:04:21;;;;;;;;;;;20.00;56.10;;;;;;5148883;27;19923;-46
2022/09/01 13:06:47;;;;;;;;;;;20.00;56.00;;;;;;5138835;27;20611;-46
2022/09/01 13:09:13;;;;;;;;;;;20.00;56.20;;;;;;5142237;27;20177;-47
2022/09/01 13:11:38;;;;;;;;;;;20.00;55.60;;;;;;5148423;27;20362;-46
2022/09/01 13:14:04;;;;;;;;;;;19.90;56.00;;;;;;5124065;27;20875;-46
2022/09/01 13:16:30;;;;;;;;;;;19.80;56.20;;;;;;5148701;27;19923;-46
2022/09/01 13:18:56;;;;;;;;;;;19.90;55.80;;;;;;5142956;27;19962;-45
2022/09/01 13:21:22;;;;;;;;;;;20.10;55.80;;;;;;5142919;27;19923;-47
2022/09/01 13:23:48;;;;;;;;;;;20.00;56.20;;;;;;5145839;27;19927;-48
2022/09/01 13:26:14;;;;;;;;;;;19.90;56.20;;;;;;5140220;27;20025;-48
2022/09/01 13:28:40;;;;;;;;;;;20.10;56.00;;;;;;5142643;27;20163;-46
2022/09/01 13:31:06;;;;;;;;;;;20.10;55.90;;;;;;5148466;27;20805;-49
2022/09/01 13:33:32;;;;;;;;;;;20.10;56.00;;;;;;5142862;27;19923;-45
2022/09/01 13:35:58;;;;;;;;;;;19.90;56.60;;;;;;5127802;27;19934;-55
2022/09/01 13:38:24;;;;;;;;;;;20.00;55.80;;;;;;5145315;27;19927;-46
2022/09/01 13:40:50;;;;;;;;;;;20.00;55.90;;;;;;5123233;27;19924;-47
2022/09/01 13:43:17;;;;;;;;;;;20.00;55.90;;;;;;5143773;27;19929;-46
2022/09/01 13:45:42;;;;;;;;;;;20.00;55.70;;;;;;5140821;27;19945;-46
2022/09/01 13:48:08;;;;;;;;;;;20.00;55.80;;;;;;5142289;27;19932;-48
2022/09/01 13:50:34;;;;;;;;;;;20.00;55.70;;;;;;5148117;27;20009;-46
2022/09/01 13:53:00;;;;;;;;;;;20.30;57.60;;;;;;5142908;27;19923;-47
2022/09/01 13:55:26;;;;;;;;;;;21.10;60.80;;;;;;5143405;27;19923;-55
2022/09/01 13:57:52;;;;;;;;;;;21.70;60.80;;;;;;5129397;27;19933;-47
2022/09/01 14:00:19;;;;;;;;;;;21.00;57.80;;;;;;5122304;27;19923;-50
2022/09/01 14:02:49;;;;;;;;;;;20.60;57.00;;;;;;5106792;27;20026;-47
2022/09/01 14:05:15;;;;;;;;;;;20.30;56.40;;;;;;5137790;27;19927;-48
2022/09/01 14:07:41;;;;;;;;;;;20.30;55.90;;;;;;5123069;27;20037;-45
2022/09/01 14:10:07;;;;;;;;;;;20.20;55.40;;;;;;5147661;27;19931;-48
2022/09/01 14:12:33;;;;;;;;;;;20.20;55.50;;;;;;5142229;27;19929;-47
2022/09/01 14:14:59;;;;;;;;;;;20.20;55.10;;;;;;5142160;27;19970;-46
2022/09/01 14:17:25;;;;;;;;;;;20.10;54.90;;;;;;5147624;27;19923;-47
2022/09/01 14:19:51;;;;;;;;;;;20.20;55.00;;;;;;5138310;27;20022;-49
2022/09/01 14:22:16;;;;;;;;;;;20.20;55.20;;;;;;5127144;27;20415;-47
2022/09/01 14:24:42;;;;;;;;;;;20.10;55.60;;;;;;5141631;27;19930;-45
2022/09/01 14:27:08;;;;;;;;;;;20.10;55.70;;;;;;5141891;27;20061;-46